Time;durP1;ratioP1;P1;durP2;ratioP2;P2;SDS_P1;SDS_P2;PMS_P1;PMS_P2;Temp;Humidity;BMP_temperature;BMP_pressure;BME280_temperature;BME280_humidity;BME280_pressure;Samples;Min_cycle;Max_cycle;Signal;HPM_P1;HPM_P2
2021/12/27 00:01:38;;;;;;;21.83;6.50;;;14.30;99.90;;;;;;5113853;28;20044;-63
2021/12/27 00:04:06;;;;;;;17.88;5.85;;;14.30;99.90;;;;;;5095853;28;20067;-62
2021/12/27 00:06:34;;;;;;;19.20;6.00;;;14.30;99.90;;;;;;5097790;28;20039;-62
2021/12/27 00:09:02;;;;;;;19.10;6.35;;;14.20;99.90;;;;;;5099953;28;20046;-62
2021/12/27 00:11:29;;;;;;;17.55;8.02;;;14.30;99.90;;;;;;5099992;28;20043;-62
2021/12/27 00:13:57;;;;;;;16.75;6.07;;;14.30;99.90;;;;;;5099868;28;20150;-62
2021/12/27 00:16:24;;;;;;;19.85;6.07;;;14.30;99.90;;;;;;5099553;28;20043;-62
2021/12/27 00:18:52;;;;;;;22.10;6.78;;;14.30;99.90;;;;;;5099918;28;20435;-62
2021/12/27 00:21:20;;;;;;;20.25;6.15;;;14.30;99.90;;;;;;5117862;28;20036;-62
2021/12/27 00:23:47;;;;;;;20.25;6.53;;;14.30;99.90;;;;;;5099703;28;20036;-62
2021/12/27 00:26:15;;;;;;;30.55;7.53;;;14.30;99.90;;;;;;5099427;28;20044;-62
2021/12/27 00:28:43;;;;;;;21.05;6.28;;;14.30;99.90;;;;;;5082520;28;20060;-62
2021/12/27 00:31:10;;;;;;;18.95;6.20;;;14.30;99.90;;;;;;5117412;28;20058;-62
2021/12/27 00:33:38;;;;;;;21.77;5.97;;;14.20;99.90;;;;;;5065893;28;20405;-62
2021/12/27 00:36:05;;;;;;;18.70;6.55;;;14.20;99.90;;;;;;5117497;28;20040;-62
2021/12/27 00:38:33;;;;;;;22.02;6.53;;;14.30;99.90;;;;;;5082298;28;20490;-62
2021/12/27 00:41:00;;;;;;;15.77;7.38;;;14.30;99.90;;;;;;5117124;28;20043;-62
2021/12/27 00:43:28;;;;;;;12.70;6.10;;;14.30;99.90;;;;;;5117341;28;20055;-62
2021/12/27 00:45:55;;;;;;;22.75;6.35;;;14.30;99.90;;;;;;5117251;28;20036;-62
2021/12/27 00:48:24;;;;;;;16.00;5.38;;;14.20;99.90;;;;;;5099217;28;20066;-62
2021/12/27 00:50:52;;;;;;;18.77;6.63;;;14.20;99.90;;;;;;5117099;28;20555;-62
2021/12/27 00:53:19;;;;;;;17.52;6.30;;;14.30;99.90;;;;;;5098890;28;20032;-62
2021/12/27 00:55:47;;;;;;;18.30;5.90;;;14.20;99.90;;;;;;5117042;28;20044;-62
2021/12/27 00:58:14;;;;;;;22.60;6.25;;;14.30;99.90;;;;;;5116862;28;20055;-62
2021/12/27 01:00:42;;;;;;;19.02;7.45;;;14.30;99.90;;;;;;5082286;28;20062;-62
2021/12/27 01:03:10;;;;;;;17.20;6.22;;;14.30;99.90;;;;;;5065496;28;20088;-62
2021/12/27 01:05:37;;;;;;;17.77;6.72;;;14.30;99.90;;;;;;5065566;28;20040;-62
2021/12/27 01:08:06;;;;;;;25.55;9.20;;;14.30;99.90;;;;;;5098765;28;20048;-62
2021/12/27 01:10:59;;;;;;;24.67;6.82;;;14.30;99.90;;;;;;5116838;28;20439;-62
2021/12/27 01:16:12;;;;;;;16.45;6.03;;;14.30;99.90;;;;;;5116719;28;20067;-62
2021/12/27 01:18:42;;;;;;;21.35;6.68;;;14.30;99.90;;;;;;5097935;28;20044;-62
2021/12/27 01:21:11;;;;;;;20.58;7.10;;;14.30;99.90;;;;;;5064949;28;20047;-62
2021/12/27 01:23:39;;;;;;;24.27;8.25;;;14.30;99.90;;;;;;5098298;28;20047;-62
2021/12/27 01:26:07;;;;;;;19.23;6.18;;;14.30;99.90;;;;;;5081808;28;20056;-62
2021/12/27 01:28:35;;;;;;;27.67;6.72;;;14.20;99.90;;;;;;5116438;28;20122;-62
2021/12/27 01:31:02;;;;;;;23.17;7.80;;;14.30;99.90;;;;;;5081374;28;20054;-62
2021/12/27 01:33:31;;;;;;;24.77;6.43;;;14.30;99.90;;;;;;5098305;28;20669;-62
2021/12/27 01:36:00;;;;;;;15.35;7.03;;;14.30;99.90;;;;;;5098290;28;20039;-62
2021/12/27 01:38:27;;;;;;;23.60;7.63;;;14.30;99.90;;;;;;5081291;28;20390;-62
2021/12/27 01:40:57;;;;;;;20.20;7.63;;;14.30;99.90;;;;;;5081350;28;20047;-62
2021/12/27 01:43:31;;;;;;;18.63;7.65;;;14.20;99.90;;;;;;5098284;28;20139;-62
2021/12/27 01:46:12;;;;;;;24.27;8.18;;;14.20;99.90;;;;;;5116185;28;20423;-62
2021/12/27 01:48:42;;;;;;;18.90;7.20;;;14.20;99.90;;;;;;5098104;28;20043;-62
2021/12/27 01:51:12;;;;;;;16.25;7.68;;;14.20;99.90;;;;;;5081422;28;20398;-62
2021/12/27 01:53:42;;;;;;;18.92;8.48;;;14.10;99.90;;;;;;5115987;28;20065;-62
2021/12/27 01:56:11;;;;;;;20.00;6.32;;;14.10;99.90;;;;;;5115848;28;20042;-62
2021/12/27 01:58:39;;;;;;;24.77;8.40;;;14.10;99.90;;;;;;5097869;28;20039;-62
2021/12/27 02:01:09;;;;;;;19.33;8.00;;;14.20;99.90;;;;;;5080971;28;20051;-62
2021/12/27 02:03:38;;;;;;;20.63;7.57;;;14.20;99.90;;;;;;5097928;28;20040;-62
2021/12/27 02:06:06;;;;;;;26.48;7.50;;;14.20;99.90;;;;;;5080989;28;20457;-62
2021/12/27 02:08:39;;;;;;;22.08;6.47;;;14.20;99.90;;;;;;5080882;28;20122;-62
2021/12/27 02:11:07;;;;;;;19.02;7.15;;;14.10;99.90;;;;;;5115775;28;20477;-62
2021/12/27 02:13:42;;;;;;;13.45;6.53;;;14.20;99.90;;;;;;5097503;28;20498;-62
2021/12/27 02:16:16;;;;;;;18.35;7.85;;;14.20;99.90;;;;;;5097550;28;20398;-62
2021/12/27 02:18:45;;;;;;;15.32;5.65;;;14.20;99.90;;;;;;5097313;28;20067;-62
2021/12/27 02:21:13;;;;;;;20.30;7.05;;;14.20;99.90;;;;;;5097304;28;20035;-63
2021/12/27 02:23:43;;;;;;;24.40;7.95;;;14.20;99.90;;;;;;5115276;28;20038;-62
2021/12/27 02:26:11;;;;;;;25.98;8.70;;;14.20;99.90;;;;;;5080539;28;20040;-63
2021/12/27 02:28:39;;;;;;;15.48;7.35;;;14.20;99.90;;;;;;5097287;28;20043;-62
2021/12/27 02:31:08;;;;;;;22.88;7.38;;;14.10;99.90;;;;;;5079607;28;20036;-62
2021/12/27 02:33:38;;;;;;;17.35;6.65;;;14.20;99.90;;;;;;5080485;28;20059;-62
2021/12/27 02:36:07;;;;;;;24.30;7.20;;;14.20;99.90;;;;;;5080166;28;20040;-62
2021/12/27 02:38:36;;;;;;;23.30;6.65;;;14.30;99.90;;;;;;5096944;28;20035;-62
2021/12/27 02:41:04;;;;;;;21.60;7.32;;;14.30;99.90;;;;;;5096834;28;20118;-62
2021/12/27 02:43:33;;;;;;;18.23;6.43;;;14.30;99.90;;;;;;5096980;28;20486;-62
2021/12/27 02:46:04;;;;;;;20.90;8.10;;;14.40;99.90;;;;;;5115001;28;20458;-62
2021/12/27 02:48:35;;;;;;;18.13;6.40;;;14.40;99.90;;;;;;5096740;28;20120;-62
2021/12/27 02:51:02;;;;;;;15.35;6.65;;;14.40;99.90;;;;;;5115026;28;20032;-62
2021/12/27 02:53:30;;;;;;;19.85;7.38;;;14.40;99.90;;;;;;5096732;28;20035;-62
2021/12/27 02:55:59;;;;;;;25.77;8.05;;;14.40;99.90;;;;;;5079604;28;20522;-62
2021/12/27 02:58:27;;;;;;;17.25;6.43;;;14.40;99.90;;;;;;5079664;28;20499;-62
2021/12/27 03:01:03;;;;;;;12.88;5.90;;;14.40;99.90;;;;;;5079880;28;20059;-62
2021/12/27 03:03:30;;;;;;;15.82;6.20;;;14.40;99.90;;;;;;5096572;28;20405;-62
2021/12/27 03:05:58;;;;;;;26.58;7.13;;;14.40;99.90;;;;;;5096629;28;20035;-62
2021/12/27 03:08:27;;;;;;;19.33;6.90;;;14.50;99.90;;;;;;5079302;28;20138;-62
2021/12/27 03:10:57;;;;;;;18.55;6.55;;;14.50;99.90;;;;;;5096637;28;20130;-62
2021/12/27 03:13:30;;;;;;;19.60;6.85;;;14.50;99.90;;;;;;5079589;28;20048;-62
2021/12/27 03:16:05;;;;;;;18.38;6.47;;;14.50;99.90;;;;;;5079809;28;20071;-62
2021/12/27 03:18:35;;;;;;;14.18;5.47;;;14.50;99.90;;;;;;5114387;28;20093;-62
2021/12/27 03:21:05;;;;;;;15.57;6.18;;;14.50;99.90;;;;;;5096223;28;20581;-62
2021/12/27 03:23:34;;;;;;;22.70;6.03;;;14.60;99.90;;;;;;5114224;28;20130;-62
2021/12/27 03:26:01;;;;;;;15.10;6.05;;;14.60;99.90;;;;;;5096305;28;20040;-62
2021/12/27 03:28:30;;;;;;;14.15;5.53;;;14.60;99.90;;;;;;5078760;28;20044;-62
2021/12/27 03:30:57;;;;;;;17.60;6.82;;;14.60;99.90;;;;;;5079207;28;20452;-62
2021/12/27 03:33:26;;;;;;;15.02;6.90;;;14.60;99.90;;;;;;5096197;28;20122;-62
2021/12/27 03:36:07;;;;;;;14.23;6.80;;;14.60;99.90;;;;;;5096397;28;20050;-62
2021/12/27 03:38:47;;;;;;;15.65;7.03;;;14.60;99.90;;;;;;5062585;28;20100;-62
2021/12/27 03:41:18;;;;;;;20.52;6.78;;;14.60;99.90;;;;;;5095743;28;20048;-62
2021/12/27 03:43:46;;;;;;;12.65;4.70;;;14.60;99.90;;;;;;5095832;28;20040;-62
2021/12/27 03:46:15;;;;;;;13.18;5.68;;;14.50;99.90;;;;;;5079305;28;20482;-62
2021/12/27 03:48:42;;;;;;;12.32;5.45;;;14.60;99.90;;;;;;5095952;28;20082;-62
2021/12/27 03:51:10;;;;;;;12.68;5.75;;;14.60;99.90;;;;;;5079113;28;20080;-62
2021/12/27 03:53:37;;;;;;;20.63;7.22;;;14.50;99.90;;;;;;5095686;28;20386;-62
2021/12/27 03:56:05;;;;;;;21.10;7.88;;;14.50;99.90;;;;;;5079274;28;20367;-62
2021/12/27 03:58:45;;;;;;;13.75;5.93;;;14.50;99.90;;;;;;5095968;28;20122;-62
2021/12/27 04:01:16;;;;;;;14.15;6.20;;;14.40;99.90;;;;;;5078872;28;20055;-63
2021/12/27 04:04:03;;;;;;;13.10;6.97;;;14.40;99.90;;;;;;5098708;28;20053;-62
2021/12/27 04:06:49;;;;;;;13.50;5.78;;;14.50;99.90;;;;;;5084639;28;20058;-62
2021/12/27 04:09:36;;;;;;;11.18;6.40;;;14.40;99.90;;;;;;5098583;28;20059;-62
2021/12/27 04:12:22;;;;;;;20.10;5.95;;;14.40;99.90;;;;;;5114063;28;20043;-62
2021/12/27 04:14:49;;;;;;;18.13;6.97;;;14.50;99.90;;;;;;5079018;28;20044;-62
2021/12/27 04:17:17;;;;;;;17.05;7.00;;;14.50;99.90;;;;;;5078977;28;20062;-63
2021/12/27 04:19:44;;;;;;;12.43;6.40;;;14.50;99.90;;;;;;5095507;28;20187;-62
2021/12/27 04:22:12;;;;;;;8.63;4.88;;;14.60;99.90;;;;;;5113749;28;20043;-62
2021/12/27 04:24:39;;;;;;;17.00;5.82;;;14.60;99.90;;;;;;5095756;28;20050;-62
2021/12/27 04:27:07;;;;;;;11.45;7.45;;;14.60;99.90;;;;;;5113777;28;20375;-62
2021/12/27 04:29:34;;;;;;;10.45;5.45;;;14.70;99.90;;;;;;5113574;28;20074;-62
2021/12/27 04:32:02;;;;;;;15.48;7.10;;;14.70;99.90;;;;;;5095299;28;20048;-62
2021/12/27 04:34:30;;;;;;;16.02;5.85;;;14.70;99.90;;;;;;5078658;28;20032;-62
2021/12/27 04:36:57;;;;;;;12.90;6.10;;;14.70;99.90;;;;;;5113636;28;20067;-62
2021/12/27 04:39:26;;;;;;;18.00;6.55;;;14.70;99.90;;;;;;5095173;28;20047;-62
2021/12/27 04:41:54;;;;;;;17.90;6.00;;;14.80;99.90;;;;;;5095428;28;20047;-62
2021/12/27 04:44:22;;;;;;;13.30;5.97;;;14.80;99.90;;;;;;5095498;28;20043;-62
2021/12/27 04:46:50;;;;;;;9.90;6.30;;;14.80;99.90;;;;;;5113396;28;20044;-62
2021/12/27 04:49:17;;;;;;;12.00;6.15;;;14.80;99.90;;;;;;5094834;28;20047;-62
2021/12/27 04:51:45;;;;;;;17.35;7.03;;;14.80;99.90;;;;;;5113332;28;20078;-62
2021/12/27 04:54:14;;;;;;;12.88;5.13;;;14.80;99.90;;;;;;5097909;28;20052;-62
2021/12/27 04:56:42;;;;;;;10.32;5.65;;;14.80;99.90;;;;;;5099164;28;20036;-62
2021/12/27 04:59:09;;;;;;;10.40;5.25;;;14.80;99.90;;;;;;5081924;28;20131;-62
2021/12/27 05:01:37;;;;;;;14.75;5.28;;;14.80;99.90;;;;;;5098646;28;20035;-62
2021/12/27 05:04:04;;;;;;;13.40;5.38;;;14.80;99.90;;;;;;5098808;28;20035;-62
2021/12/27 05:06:32;;;;;;;10.20;4.78;;;14.80;99.90;;;;;;5098726;28;20035;-62
2021/12/27 05:08:59;;;;;;;12.32;4.57;;;14.80;99.90;;;;;;5081541;28;20051;-62
2021/12/27 05:11:27;;;;;;;12.80;4.68;;;14.80;99.90;;;;;;5098659;28;20558;-62
2021/12/27 05:13:54;;;;;;;13.70;5.85;;;14.80;99.90;;;;;;5098693;28;20051;-62
2021/12/27 05:16:22;;;;;;;9.45;4.65;;;14.80;99.90;;;;;;5081845;28;20054;-62
2021/12/27 05:18:50;;;;;;;8.65;4.70;;;14.80;99.90;;;;;;5081740;28;20093;-62
2021/12/27 05:21:17;;;;;;;13.93;4.25;;;14.80;99.90;;;;;;5098742;28;20044;-62
2021/12/27 05:23:45;;;;;;;8.80;4.38;;;14.80;99.90;;;;;;5098152;28;20058;-62
2021/12/27 05:26:12;;;;;;;6.30;4.00;;;14.80;99.90;;;;;;5098595;28;20036;-63
2021/12/27 05:28:40;;;;;;;10.18;3.80;;;14.70;99.90;;;;;;5081536;28;20063;-63
2021/12/27 05:31:07;;;;;;;4.15;2.08;;;14.60;99.90;;;;;;5081529;28;20147;-62
2021/12/27 05:33:35;;;;;;;6.15;2.50;;;14.50;99.90;;;;;;5080807;28;20570;-62
2021/12/27 05:36:03;;;;;;;3.65;1.90;;;14.50;99.90;;;;;;5081217;28;20052;-62
2021/12/27 05:38:31;;;;;;;7.78;2.50;;;14.40;99.90;;;;;;5081035;28;20532;-62
2021/12/27 05:40:58;;;;;;;5.97;2.42;;;14.40;99.90;;;;;;5116052;28;20061;-62
2021/12/27 05:43:27;;;;;;;6.45;2.50;;;14.20;99.90;;;;;;5098389;28;20452;-62
2021/12/27 05:45:54;;;;;;;6.88;2.95;;;14.20;99.90;;;;;;5073345;28;20052;-62
2021/12/27 05:48:22;;;;;;;5.38;3.42;;;14.20;99.90;;;;;;5097946;28;20130;-62
2021/12/27 05:50:50;;;;;;;7.72;2.70;;;14.00;99.90;;;;;;5097919;28;20039;-62
2021/12/27 05:53:17;;;;;;;7.10;2.90;;;13.90;99.90;;;;;;5064606;28;20071;-62
2021/12/27 05:55:45;;;;;;;10.50;3.03;;;13.80;99.90;;;;;;5097996;28;20047;-62
2021/12/27 05:58:13;;;;;;;5.38;2.92;;;13.80;99.90;;;;;;5097854;28;20051;-62
2021/12/27 06:00:40;;;;;;;6.18;2.47;;;13.80;99.90;;;;;;5097882;28;20032;-62
2021/12/27 06:03:08;;;;;;;4.82;2.38;;;13.80;99.90;;;;;;5081198;28;20046;-62
2021/12/27 06:05:36;;;;;;;7.28;3.85;;;13.70;99.90;;;;;;5097477;28;20490;-62
2021/12/27 06:08:04;;;;;;;9.88;4.47;;;13.60;99.90;;;;;;5097794;28;20104;-62
2021/12/27 06:10:31;;;;;;;12.10;6.53;;;13.70;99.90;;;;;;5080470;28;20066;-62
2021/12/27 06:12:59;;;;;;;6.10;4.22;;;13.60;99.90;;;;;;5115447;28;20093;-62
2021/12/27 06:15:27;;;;;;;7.32;3.80;;;13.50;99.90;;;;;;5115472;28;20031;-62
2021/12/27 06:17:55;;;;;;;5.45;2.67;;;13.60;99.90;;;;;;5115775;28;20039;-62
2021/12/27 06:20:22;;;;;;;3.45;2.00;;;13.60;99.90;;;;;;5097236;28;20043;-62
2021/12/27 06:22:53;;;;;;;2.05;1.20;;;13.50;99.90;;;;;;5080589;28;20050;-62
2021/12/27 06:25:21;;;;;;;4.18;1.50;;;13.50;99.90;;;;;;5097389;28;20516;-62
2021/12/27 06:27:49;;;;;;;3.40;1.88;;;13.50;99.90;;;;;;5080419;28;20464;-61
2021/12/27 06:30:17;;;;;;;5.00;2.17;;;13.40;99.90;;;;;;5115251;28;20036;-62
2021/12/27 06:32:45;;;;;;;5.00;2.40;;;13.40;99.90;;;;;;5097195;28;20036;-62
2021/12/27 06:35:14;;;;;;;5.57;2.10;;;13.40;99.90;;;;;;5097106;28;20044;-62
2021/12/27 06:37:43;;;;;;;3.30;1.65;;;13.40;99.90;;;;;;5080281;28;20074;-62
2021/12/27 06:40:13;;;;;;;4.20;1.95;;;13.40;99.90;;;;;;5096765;28;20046;-62
2021/12/27 06:42:41;;;;;;;6.13;2.92;;;13.30;99.90;;;;;;5097168;28;20051;-62
2021/12/27 06:45:09;;;;;;;4.65;1.40;;;13.30;99.90;;;;;;5080250;28;20146;-62
2021/12/27 06:47:37;;;;;;;3.20;1.63;;;13.30;99.90;;;;;;5097002;28;20130;-62
2021/12/27 06:50:09;;;;;;;2.83;1.67;;;13.20;99.90;;;;;;5063472;28;20584;-62
2021/12/27 06:52:38;;;;;;;3.10;1.65;;;13.20;99.90;;;;;;5114828;28;20036;-62
2021/12/27 06:55:06;;;;;;;5.28;1.70;;;13.10;99.90;;;;;;5063382;28;20051;-62
2021/12/27 06:57:34;;;;;;;7.03;2.13;;;13.00;99.90;;;;;;5096532;28;20040;-62
2021/12/27 07:00:06;;;;;;;4.10;1.45;;;12.80;99.90;;;;;;5114479;28;20512;-63
2021/12/27 07:02:34;;;;;;;3.22;1.30;;;12.70;99.90;;;;;;5114445;28;20050;-62
2021/12/27 07:05:01;;;;;;;4.57;1.35;;;12.70;99.90;;;;;;5096501;28;20046;-62
2021/12/27 07:07:29;;;;;;;2.58;1.35;;;12.70;99.90;;;;;;5096650;28;20482;-62
2021/12/27 07:09:56;;;;;;;3.67;1.10;;;12.70;99.90;;;;;;5114483;28;20039;-62
2021/12/27 07:12:24;;;;;;;3.60;1.55;;;12.70;99.90;;;;;;5114555;28;20048;-62
2021/12/27 07:14:53;;;;;;;6.13;1.30;;;12.70;99.90;;;;;;5114178;28;20055;-62
2021/12/27 07:17:21;;;;;;;2.33;1.10;;;12.70;99.90;;;;;;5095886;28;20043;-62
2021/12/27 07:19:48;;;;;;;3.05;1.45;;;12.70;99.90;;;;;;5062339;28;20044;-62
2021/12/27 07:22:16;;;;;;;1.77;0.93;;;12.70;99.90;;;;;;5096303;28;20048;-62
2021/12/27 07:24:44;;;;;;;1.48;0.80;;;12.80;99.90;;;;;;5114349;28;20042;-62
2021/12/27 07:27:11;;;;;;;1.83;0.80;;;12.80;99.90;;;;;;5096191;28;20047;-63
2021/12/27 07:29:39;;;;;;;1.63;1.00;;;12.90;99.90;;;;;;5096223;28;20038;-62
2021/12/27 07:32:07;;;;;;;1.63;0.68;;;12.90;99.90;;;;;;5079433;28;20048;-62
2021/12/27 07:34:37;;;;;;;5.80;2.75;;;13.00;99.90;;;;;;5079725;28;20097;-63
2021/12/27 07:37:05;;;;;;;5.72;3.95;;;13.00;99.90;;;;;;5079115;28;20071;-62
2021/12/27 07:39:33;;;;;;;4.63;2.95;;;13.10;99.90;;;;;;5113957;28;20112;-62
2021/12/27 07:42:00;;;;;;;8.07;4.45;;;13.20;99.90;;;;;;5095466;28;20083;-62
2021/12/27 07:44:28;;;;;;;6.65;3.47;;;13.20;99.90;;;;;;5095881;28;20135;-62
2021/12/27 07:46:55;;;;;;;3.65;1.73;;;13.40;99.90;;;;;;5096005;28;20442;-62
2021/12/27 07:49:23;;;;;;;3.92;1.90;;;13.50;99.90;;;;;;5113709;28;20072;-62
2021/12/27 07:51:51;;;;;;;3.22;1.73;;;13.60;99.90;;;;;;5078713;28;20048;-62
2021/12/27 07:54:18;;;;;;;3.17;1.70;;;13.70;99.90;;;;;;5079171;28;20054;-62
2021/12/27 07:56:46;;;;;;;4.22;2.00;;;13.80;99.90;;;;;;5096019;28;20047;-62
2021/12/27 07:59:14;;;;;;;4.38;2.00;;;13.90;99.90;;;;;;5113948;28;20039;-62
2021/12/27 08:01:42;;;;;;;3.17;1.73;;;13.90;99.90;;;;;;5113728;28;20486;-62
2021/12/27 08:04:09;;;;;;;4.13;2.03;;;13.80;99.90;;;;;;5095907;28;20558;-62
2021/12/27 08:06:37;;;;;;;4.63;2.80;;;13.90;99.90;;;;;;5078901;28;20051;-62
2021/12/27 08:09:06;;;;;;;2.90;2.03;;;13.90;99.90;;;;;;5095638;28;20040;-62
2021/12/27 08:11:34;;;;;;;3.75;2.30;;;13.90;99.90;;;;;;5095444;28;20052;-62
2021/12/27 08:14:03;;;;;;;2.70;1.60;;;13.90;99.90;;;;;;5079214;28;20058;-62
2021/12/27 08:16:30;;;;;;;3.67;2.25;;;13.90;99.90;;;;;;5079033;28;20035;-62
2021/12/27 08:18:58;;;;;;;4.32;1.40;;;13.90;99.90;;;;;;5095402;28;20048;-63
2021/12/27 08:21:28;;;;;;;2.03;1.35;;;13.90;99.90;;;;;;5095556;28;20093;-62
2021/12/27 08:23:56;;;;;;;2.50;1.20;;;13.90;99.90;;;;;;5078578;28;20381;-62
2021/12/27 08:26:24;;;;;;;2.78;1.73;;;13.90;99.90;;;;;;5113626;28;20409;-62
2021/12/27 08:28:55;;;;;;;3.88;1.98;;;14.00;99.90;;;;;;5115881;28;20048;-62
2021/12/27 08:31:23;;;;;;;3.50;2.22;;;14.10;99.90;;;;;;5117612;28;20067;-62
2021/12/27 08:33:51;;;;;;;5.78;2.60;;;14.10;99.90;;;;;;5065722;28;20389;-62
2021/12/27 08:36:19;;;;;;;3.33;2.03;;;14.20;99.90;;;;;;5099423;28;20061;-62
2021/12/27 08:38:49;;;;;;;3.20;1.92;;;14.40;99.90;;;;;;5117323;28;20040;-63
2021/12/27 08:41:18;;;;;;;2.75;1.88;;;14.30;99.90;;;;;;5090283;28;20056;-62
2021/12/27 08:43:46;;;;;;;2.78;1.85;;;14.40;99.90;;;;;;5081175;28;20142;-62
2021/12/27 08:46:14;;;;;;;3.13;2.05;;;14.30;99.90;;;;;;5099265;28;20054;-63
2021/12/27 08:48:43;;;;;;;6.88;2.80;;;14.30;99.90;;;;;;5117223;28;20063;-63
2021/12/27 08:51:10;;;;;;;5.65;2.20;;;14.40;99.90;;;;;;5099092;28;20046;-64
2021/12/27 08:53:39;;;;;;;3.72;2.15;;;14.50;99.90;;;;;;5098838;28;20044;-62
2021/12/27 08:56:07;;;;;;;3.72;1.70;;;14.80;99.90;;;;;;5117159;28;20039;-62
2021/12/27 08:58:35;;;;;;;4.97;2.63;;;14.90;99.90;;;;;;5099162;28;20089;-62
2021/12/27 09:01:02;;;;;;;3.90;2.63;;;14.70;99.90;;;;;;5116977;28;20473;-62
2021/12/27 09:03:30;;;;;;;7.35;2.70;;;14.70;99.90;;;;;;5098633;28;20105;-63
2021/12/27 09:05:57;;;;;;;7.43;2.25;;;14.60;99.90;;;;;;5098937;28;20512;-63
2021/12/27 09:08:25;;;;;;;4.40;2.13;;;14.50;99.90;;;;;;5098658;28;20131;-62
2021/12/27 09:10:57;;;;;;;5.00;2.97;;;14.50;99.90;;;;;;5098456;28;20092;-62
2021/12/27 09:13:30;;;;;;;5.28;2.22;;;14.50;99.90;;;;;;5099060;28;20563;-63
2021/12/27 09:16:02;;;;;;;3.67;2.05;;;14.50;99.90;;;;;;5098909;28;20048;-63
2021/12/27 09:18:31;;;;;;;3.28;2.03;;;14.50;99.90;;;;;;5116697;28;20134;-62
2021/12/27 09:21:03;;;;;;;3.38;1.90;;;14.50;99.90;;;;;;5116662;28;20052;-62
2021/12/27 09:23:30;;;;;;;3.70;2.35;;;14.50;99.90;;;;;;5098541;28;20044;-63
2021/12/27 09:25:58;;;;;;;3.75;2.00;;;14.40;99.90;;;;;;5098513;28;20040;-62
2021/12/27 09:28:26;;;;;;;3.97;2.70;;;14.50;99.90;;;;;;5116705;28;20133;-62
2021/12/27 09:30:53;;;;;;;4.30;2.30;;;14.60;99.90;;;;;;5097970;28;20049;-63
2021/12/27 09:33:22;;;;;;;3.30;2.30;;;14.60;99.90;;;;;;5098366;28;20040;-63
2021/12/27 09:35:49;;;;;;;11.15;6.63;;;14.70;99.90;;;;;;5116294;28;20044;-63
2021/12/27 09:38:18;;;;;;;7.07;4.95;;;14.80;99.90;;;;;;5097814;28;20075;-62
2021/12/27 09:40:45;;;;;;;8.00;3.58;;;15.20;99.90;;;;;;5115821;28;20036;-62
2021/12/27 09:43:13;;;;;;;6.43;3.72;;;15.30;99.90;;;;;;5097825;28;20044;-63
2021/12/27 09:45:41;;;;;;;4.95;2.70;;;15.50;99.90;;;;;;5116109;28;20092;-63
2021/12/27 09:48:09;;;;;;;5.18;2.58;;;15.90;99.90;;;;;;5081085;28;20494;-63
2021/12/27 09:50:41;;;;;;;7.25;2.58;;;16.30;99.90;;;;;;5115942;28;20054;-63
2021/12/27 09:53:11;;;;;;;4.13;2.08;;;16.60;99.90;;;;;;5098074;28;20051;-63
2021/12/27 09:55:39;;;;;;;4.50;1.83;;;16.60;99.90;;;;;;5081040;28;20059;-63
2021/12/27 09:58:07;;;;;;;3.85;2.22;;;16.60;99.90;;;;;;5080967;28;20044;-63
2021/12/27 10:00:36;;;;;;;4.53;2.65;;;16.40;99.90;;;;;;5115890;28;20048;-63
2021/12/27 10:03:08;;;;;;;3.63;2.15;;;16.20;99.90;;;;;;5097760;28;20516;-63
2021/12/27 10:05:37;;;;;;;4.30;2.40;;;16.10;99.90;;;;;;5097896;28;20050;-62
2021/12/27 10:08:07;;;;;;;6.13;2.45;;;16.10;99.90;;;;;;5115943;28;20393;-62
2021/12/27 10:10:35;;;;;;;5.13;2.33;;;16.10;99.90;;;;;;5097297;28;20059;-63
2021/12/27 10:13:11;;;;;;;5.65;2.90;;;15.80;99.90;;;;;;5081030;28;20051;-63
2021/12/27 10:15:41;;;;;;;5.97;4.05;;;15.90;99.90;;;;;;5115578;28;20055;-62
2021/12/27 10:18:11;;;;;;;7.15;3.00;;;15.80;99.90;;;;;;5115434;28;20051;-63
2021/12/27 10:20:39;;;;;;;3.55;2.15;;;15.70;99.90;;;;;;5097065;28;20036;-63
2021/12/27 10:23:08;;;;;;;4.78;1.83;;;15.80;99.90;;;;;;5115106;28;20481;-63
2021/12/27 10:25:36;;;;;;;3.35;1.63;;;16.10;99.90;;;;;;5097483;28;20417;-63
2021/12/27 10:28:05;;;;;;;3.75;1.65;;;16.40;99.90;;;;;;5063622;28;20043;-63
2021/12/27 10:30:36;;;;;;;2.53;1.45;;;16.60;99.90;;;;;;5097010;28;20047;-64
2021/12/27 10:33:19;;;;;;;2.92;1.63;;;16.60;99.90;;;;;;5097357;28;20084;-62
2021/12/27 10:35:50;;;;;;;5.07;2.25;;;16.70;99.90;;;;;;5114835;28;20073;-63
2021/12/27 10:38:24;;;;;;;3.88;1.60;;;16.70;99.90;;;;;;5096864;28;20130;-63
2021/12/27 10:41:14;;;;;;;3.13;1.48;;;16.90;99.90;;;;;;5079841;28;20131;-63
2021/12/27 10:43:47;;;;;;;7.70;2.85;;;16.80;99.90;;;;;;5080299;28;20048;-63
2021/12/27 10:46:21;;;;;;;2.83;2.10;;;17.00;99.90;;;;;;5080694;28;20039;-63
2021/12/27 10:48:59;;;;;;;4.20;1.60;;;17.20;99.90;;;;;;5080642;28;20105;-63
2021/12/27 10:51:28;;;;;;;3.72;1.55;;;17.20;99.90;;;;;;5095741;28;20044;-63
2021/12/27 10:53:58;;;;;;;4.03;1.60;;;17.30;99.90;;;;;;5114378;28;20062;-63
2021/12/27 10:56:47;;;;;;;4.50;2.03;;;17.40;99.90;;;;;;5063499;28;20065;-63
2021/12/27 10:59:20;;;;;;;5.18;1.67;;;17.50;99.90;;;;;;5096510;28;20142;-63
2021/12/27 11:01:48;;;;;;;5.50;1.58;;;17.60;99.90;;;;;;5096565;28;20146;-63
2021/12/27 11:04:18;;;;;;;3.15;1.70;;;17.60;99.90;;;;;;5114477;28;20047;-63
2021/12/27 11:06:46;;;;;;;4.78;2.03;;;17.70;99.90;;;;;;5096132;28;20541;-63
2021/12/27 11:09:14;;;;;;;6.40;2.53;;;17.60;99.90;;;;;;5096164;28;20047;-63
2021/12/27 11:11:42;;;;;;;6.78;4.00;;;17.60;99.90;;;;;;5063119;28;20088;-63
2021/12/27 11:14:10;;;;;;;6.70;3.88;;;17.40;99.90;;;;;;5096262;28;20062;-63
2021/12/27 11:16:37;;;;;;;5.72;3.25;;;17.40;99.90;;;;;;5114480;28;20035;-63
2021/12/27 11:19:05;;;;;;;5.45;2.75;;;17.60;99.90;;;;;;5096005;28;20498;-63
2021/12/27 11:21:44;;;;;;;6.68;3.97;;;17.80;99.90;;;;;;5096319;28;20031;-63
2021/12/27 11:24:12;;;;;;;8.18;3.72;;;18.00;99.90;;;;;;5096353;28;20051;-64
2021/12/27 11:26:42;;;;;;;3.88;1.80;;;18.20;99.90;;;;;;5079339;28;20054;-63
2021/12/27 11:29:11;;;;;;;3.65;2.10;;;18.40;99.90;;;;;;5062713;28;20458;-63
2021/12/27 11:31:39;;;;;;;3.85;2.58;;;18.50;99.90;;;;;;5096017;28;20047;-63
2021/12/27 11:34:12;;;;;;;2.85;1.95;;;18.60;99.90;;;;;;5096328;28;20055;-63
2021/12/27 11:36:45;;;;;;;5.68;2.05;;;18.70;99.90;;;;;;5114125;28;20040;-63
2021/12/27 11:39:26;;;;;;;4.05;2.13;;;18.80;99.90;;;;;;5096239;28;20092;-64
2021/12/27 11:42:05;;;;;;;4.75;1.50;;;18.80;99.90;;;;;;5114069;28;20398;-63
2021/12/27 11:44:56;;;;;;;1.80;1.38;;;18.60;99.90;;;;;;5114123;28;20050;-63
2021/12/27 11:47:30;;;;;;;3.25;1.95;;;18.60;99.90;;;;;;5113843;28;20522;-63
2021/12/27 11:50:06;;;;;;;6.32;2.22;;;18.60;99.90;;;;;;5114067;28;20051;-63
2021/12/27 11:52:39;;;;;;;1.77;1.20;;;18.40;99.90;;;;;;5079057;28;20051;-63
2021/12/27 11:55:14;;;;;;;2.85;1.50;;;18.10;99.90;;;;;;5096190;28;20412;-63
2021/12/27 11:57:45;;;;;;;2.92;1.50;;;18.00;99.90;;;;;;5062365;28;20077;-63
2021/12/27 12:00:19;;;;;;;1.85;1.05;;;18.20;99.90;;;;;;5096211;28;20043;-63
2021/12/27 12:02:51;;;;;;;3.33;1.58;;;18.30;99.90;;;;;;5081274;28;20051;-63
2021/12/27 12:05:57;;;;;;;5.18;2.97;;;18.30;99.90;;;;;;5100104;28;20164;-63
2021/12/27 12:08:27;;;;;;;2.42;1.83;;;17.80;99.90;;;;;;5015330;28;20140;-63
2021/12/27 12:11:01;;;;;;;2.80;2.10;;;17.80;99.90;;;;;;4999305;28;20052;-63
2021/12/27 12:13:32;;;;;;;4.35;2.97;;;17.80;99.90;;;;;;5055005;28;20431;-63
2021/12/27 12:16:07;;;;;;;5.57;2.97;;;17.90;99.90;;;;;;5083478;28;20393;-63
2021/12/27 12:18:42;;;;;;;4.45;2.72;;;18.10;99.90;;;;;;5099750;28;20052;-63
2021/12/27 12:21:29;;;;;;;4.55;3.08;;;18.20;99.90;;;;;;5117976;28;20043;-63
2021/12/27 12:24:03;;;;;;;3.30;2.60;;;18.30;99.90;;;;;;5099811;28;20485;-63
2021/12/27 12:26:55;;;;;;;3.60;2.25;;;18.20;99.90;;;;;;5118054;28;20063;-63
2021/12/27 12:29:29;;;;;;;2.03;1.27;;;18.10;99.90;;;;;;5117793;28;20046;-63
2021/12/27 12:32:00;;;;;;;3.13;1.85;;;18.00;99.90;;;;;;5099621;28;20224;-63
2021/12/27 12:34:28;;;;;;;5.50;2.10;;;17.90;99.90;;;;;;5099583;28;20493;-63
2021/12/27 12:37:02;;;;;;;2.83;1.48;;;17.70;99.90;;;;;;5071195;28;20486;-63
2021/12/27 12:39:40;;;;;;;2.75;1.50;;;17.70;99.90;;;;;;5096064;28;20501;-63
2021/12/27 12:42:21;;;;;;;2.30;1.60;;;17.50;99.90;;;;;;5082493;28;20055;-63
2021/12/27 12:45:00;;;;;;;4.15;1.73;;;17.50;99.90;;;;;;5117228;28;20402;-63
2021/12/27 12:47:38;;;;;;;4.35;1.75;;;17.40;99.90;;;;;;5099102;28;20043;-63
2021/12/27 12:50:20;;;;;;;3.42;1.92;;;17.40;99.90;;;;;;5099341;28;20047;-63
2021/12/27 12:52:52;;;;;;;3.30;1.80;;;17.30;99.90;;;;;;5099144;28;20142;-63
2021/12/27 12:55:26;;;;;;;3.53;1.92;;;17.30;99.90;;;;;;5082437;28;20050;-63
2021/12/27 12:57:54;;;;;;;2.97;2.00;;;17.10;99.90;;;;;;5117348;28;20039;-63
2021/12/27 13:00:31;;;;;;;4.50;2.05;;;17.10;99.90;;;;;;5099350;28;20036;-63